sensor_id;sensor_type;location;lat;lon;timestamp;P1;durP1;ratioP1;P2;durP2;ratioP2
56943;SDS011;42848;42.524;12.052;2022-10-16T00:01:29;12.60;;;8.18;;
56943;SDS011;42848;42.524;12.052;2022-10-16T00:03:56;12.10;;;7.10;;
56943;SDS011;42848;42.524;12.052;2022-10-16T00:06:24;11.95;;;7.82;;
56943;SDS011;42848;42.524;12.052;2022-10-16T00:08:50;13.10;;;7.93;;
56943;SDS011;42848;42.524;12.052;2022-10-16T00:11:24;13.75;;;7.72;;
56943;SDS011;42848;42.524;12.052;2022-10-16T00:13:54;10.95;;;7.55;;
56943;SDS011;42848;42.524;12.052;2022-10-16T00:16:21;11.85;;;7.43;;
56943;SDS011;42848;42.524;12.052;2022-10-16T00:18:47;13.05;;;7.82;;
56943;SDS011;42848;42.524;12.052;2022-10-16T00:21:14;12.73;;;8.25;;
56943;SDS011;42848;42.524;12.052;2022-10-16T00:23:42;15.65;;;9.07;;
56943;SDS011;42848;42.524;12.052;2022-10-16T00:26:14;14.48;;;8.40;;
56943;SDS011;42848;42.524;12.052;2022-10-16T00:28:41;14.70;;;8.70;;
56943;SDS011;42848;42.524;12.052;2022-10-16T00:31:08;12.25;;;8.63;;
56943;SDS011;42848;42.524;12.052;2022-10-16T00:33:36;12.77;;;8.50;;
56943;SDS011;42848;42.524;12.052;2022-10-16T00:36:04;13.20;;;8.38;;
56943;SDS011;42848;42.524;12.052;2022-10-16T00:38:31;13.30;;;8.77;;
56943;SDS011;42848;42.524;12.052;2022-10-16T00:40:56;14.32;;;8.45;;
56943;SDS011;42848;42.524;12.052;2022-10-16T00:46:19;12.68;;;8.05;;
56943;SDS011;42848;42.524;12.052;2022-10-16T00:48:49;12.43;;;7.80;;
56943;SDS011;42848;42.524;12.052;2022-10-16T00:51:19;12.02;;;8.13;;
56943;SDS011;42848;42.524;12.052;2022-10-16T00:53:50;10.70;;;7.47;;
56943;SDS011;42848;42.524;12.052;2022-10-16T00:56:16;15.70;;;7.85;;
56943;SDS011;42848;42.524;12.052;2022-10-16T00:58:42;12.38;;;7.95;;
56943;SDS011;42848;42.524;12.052;2022-10-16T01:01:08;11.93;;;8.25;;
56943;SDS011;42848;42.524;12.052;2022-10-16T01:03:35;13.82;;;8.45;;
56943;SDS011;42848;42.524;12.052;2022-10-16T01:06:07;12.93;;;7.80;;
56943;SDS011;42848;42.524;12.052;2022-10-16T01:08:44;13.65;;;8.02;;
56943;SDS011;42848;42.524;12.052;2022-10-16T01:11:36;12.13;;;7.80;;
56943;SDS011;42848;42.524;12.052;2022-10-16T01:14:53;12.65;;;7.95;;
56943;SDS011;42848;42.524;12.052;2022-10-16T01:17:12;13.38;;;8.30;;
56943;SDS011;42848;42.524;12.052;2022-10-16T01:22:39;12.75;;;8.35;;
56943;SDS011;42848;42.524;12.052;2022-10-16T01:25:40;14.30;;;8.57;;
56943;SDS011;42848;42.524;12.052;2022-10-16T01:28:15;14.88;;;8.73;;
56943;SDS011;42848;42.524;12.052;2022-10-16T01:30:44;16.20;;;10.88;;
56943;SDS011;42848;42.524;12.052;2022-10-16T01:33:20;19.92;;;11.00;;
56943;SDS011;42848;42.524;12.052;2022-10-16T01:35:53;18.52;;;11.38;;
56943;SDS011;42848;42.524;12.052;2022-10-16T01:38:26;15.82;;;10.48;;
56943;SDS011;42848;42.524;12.052;2022-10-16T01:41:01;17.25;;;10.85;;
56943;SDS011;42848;42.524;12.052;2022-10-16T01:43:39;16.95;;;10.32;;
56943;SDS011;42848;42.524;12.052;2022-10-16T01:46:09;14.82;;;9.75;;
56943;SDS011;42848;42.524;12.052;2022-10-16T01:48:37;17.05;;;10.05;;
56943;SDS011;42848;42.524;12.052;2022-10-16T01:51:05;17.38;;;10.80;;
56943;SDS011;42848;42.524;12.052;2022-10-16T01:53:35;17.95;;;11.00;;
56943;SDS011;42848;42.524;12.052;2022-10-16T01:56:02;17.08;;;11.20;;
56943;SDS011;42848;42.524;12.052;2022-10-16T01:58:33;17.13;;;11.05;;
56943;SDS011;42848;42.524;12.052;2022-10-16T02:01:03;18.17;;;11.20;;
56943;SDS011;42848;42.524;12.052;2022-10-16T02:03:32;20.00;;;11.25;;
56943;SDS011;42848;42.524;12.052;2022-10-16T02:06:02;19.42;;;10.88;;
56943;SDS011;42848;42.524;12.052;2022-10-16T02:08:28;17.45;;;11.02;;
56943;SDS011;42848;42.524;12.052;2022-10-16T02:10:56;16.50;;;10.75;;
56943;SDS011;42848;42.524;12.052;2022-10-16T02:13:45;16.73;;;10.88;;
56943;SDS011;42848;42.524;12.052;2022-10-16T02:16:12;16.67;;;11.50;;
56943;SDS011;42848;42.524;12.052;2022-10-16T02:18:39;18.35;;;11.77;;
56943;SDS011;42848;42.524;12.052;2022-10-16T02:23:54;18.45;;;11.95;;
56943;SDS011;42848;42.524;12.052;2022-10-16T02:29:04;17.45;;;11.10;;
56943;SDS011;42848;42.524;12.052;2022-10-16T02:31:37;19.45;;;12.07;;
56943;SDS011;42848;42.524;12.052;2022-10-16T02:34:09;17.83;;;11.63;;
56943;SDS011;42848;42.524;12.052;2022-10-16T02:36:37;19.60;;;12.00;;
56943;SDS011;42848;42.524;12.052;2022-10-16T02:39:04;17.75;;;11.73;;
56943;SDS011;42848;42.524;12.052;2022-10-16T02:41:31;18.63;;;12.38;;
56943;SDS011;42848;42.524;12.052;2022-10-16T02:43:58;20.48;;;12.05;;
56943;SDS011;42848;42.524;12.052;2022-10-16T02:46:23;19.75;;;12.13;;
56943;SDS011;42848;42.524;12.052;2022-10-16T02:48:49;21.77;;;12.63;;
56943;SDS011;42848;42.524;12.052;2022-10-16T02:51:15;18.48;;;11.85;;
56943;SDS011;42848;42.524;12.052;2022-10-16T02:53:40;20.65;;;12.95;;
56943;SDS011;42848;42.524;12.052;2022-10-16T02:56:06;20.60;;;12.05;;
56943;SDS011;42848;42.524;12.052;2022-10-16T02:58:32;18.73;;;12.57;;
56943;SDS011;42848;42.524;12.052;2022-10-16T03:00:58;18.13;;;12.07;;
56943;SDS011;42848;42.524;12.052;2022-10-16T03:03:24;18.02;;;11.77;;
56943;SDS011;42848;42.524;12.052;2022-10-16T03:05:49;19.25;;;12.07;;
56943;SDS011;42848;42.524;12.052;2022-10-16T03:08:15;19.65;;;12.18;;
56943;SDS011;42848;42.524;12.052;2022-10-16T03:10:41;18.83;;;11.73;;
56943;SDS011;42848;42.524;12.052;2022-10-16T03:13:07;18.02;;;12.05;;
56943;SDS011;42848;42.524;12.052;2022-10-16T03:15:32;20.42;;;12.63;;
56943;SDS011;42848;42.524;12.052;2022-10-16T03:17:58;20.88;;;12.50;;
56943;SDS011;42848;42.524;12.052;2022-10-16T03:20:24;20.15;;;11.90;;
56943;SDS011;42848;42.524;12.052;2022-10-16T03:22:50;18.50;;;11.82;;
56943;SDS011;42848;42.524;12.052;2022-10-16T03:25:16;19.15;;;11.57;;
56943;SDS011;42848;42.524;12.052;2022-10-16T03:27:42;19.50;;;12.20;;
56943;SDS011;42848;42.524;12.052;2022-10-16T03:30:07;17.90;;;11.38;;
56943;SDS011;42848;42.524;12.052;2022-10-16T03:32:34;18.27;;;11.52;;
56943;SDS011;42848;42.524;12.052;2022-10-16T03:34:59;19.00;;;11.95;;
56943;SDS011;42848;42.524;12.052;2022-10-16T03:37:25;18.75;;;11.25;;
56943;SDS011;42848;42.524;12.052;2022-10-16T03:39:51;19.85;;;11.77;;
56943;SDS011;42848;42.524;12.052;2022-10-16T03:42:17;19.00;;;11.60;;
56943;SDS011;42848;42.524;12.052;2022-10-16T03:44:42;19.92;;;12.35;;
56943;SDS011;42848;42.524;12.052;2022-10-16T03:47:08;21.85;;;12.13;;
56943;SDS011;42848;42.524;12.052;2022-10-16T03:49:34;21.88;;;12.93;;
56943;SDS011;42848;42.524;12.052;2022-10-16T03:51:59;19.05;;;11.70;;
56943;SDS011;42848;42.524;12.052;2022-10-16T03:54:25;17.33;;;11.20;;
56943;SDS011;42848;42.524;12.052;2022-10-16T03:56:51;16.42;;;11.13;;
56943;SDS011;42848;42.524;12.052;2022-10-16T03:59:16;17.52;;;10.93;;
56943;SDS011;42848;42.524;12.052;2022-10-16T04:01:42;17.52;;;10.90;;
56943;SDS011;42848;42.524;12.052;2022-10-16T04:04:08;21.35;;;11.48;;
56943;SDS011;42848;42.524;12.052;2022-10-16T04:06:34;19.42;;;10.85;;
56943;SDS011;42848;42.524;12.052;2022-10-16T04:08:59;18.33;;;10.73;;
56943;SDS011;42848;42.524;12.052;2022-10-16T04:11:25;17.08;;;10.73;;
56943;SDS011;42848;42.524;12.052;2022-10-16T04:13:51;18.58;;;11.57;;
56943;SDS011;42848;42.524;12.052;2022-10-16T04:16:16;17.23;;;11.45;;
56943;SDS011;42848;42.524;12.052;2022-10-16T04:18:42;18.08;;;12.15;;
56943;SDS011;42848;42.524;12.052;2022-10-16T04:21:08;17.42;;;11.27;;
56943;SDS011;42848;42.524;12.052;2022-10-16T04:23:33;19.23;;;12.15;;
56943;SDS011;42848;42.524;12.052;2022-10-16T04:26:00;19.95;;;12.00;;
56943;SDS011;42848;42.524;12.052;2022-10-16T04:28:26;19.92;;;12.32;;
56943;SDS011;42848;42.524;12.052;2022-10-16T04:30:52;18.42;;;12.18;;
56943;SDS011;42848;42.524;12.052;2022-10-16T04:33:18;23.75;;;13.02;;
56943;SDS011;42848;42.524;12.052;2022-10-16T04:35:43;21.42;;;13.40;;
56943;SDS011;42848;42.524;12.052;2022-10-16T04:38:09;20.33;;;12.38;;
56943;SDS011;42848;42.524;12.052;2022-10-16T04:40:34;20.80;;;12.63;;
56943;SDS011;42848;42.524;12.052;2022-10-16T04:43:04;22.33;;;12.95;;
56943;SDS011;42848;42.524;12.052;2022-10-16T04:45:31;20.63;;;12.60;;
56943;SDS011;42848;42.524;12.052;2022-10-16T04:47:59;22.23;;;12.85;;
56943;SDS011;42848;42.524;12.052;2022-10-16T04:50:25;22.08;;;13.15;;
56943;SDS011;42848;42.524;12.052;2022-10-16T04:52:51;21.42;;;12.98;;
56943;SDS011;42848;42.524;12.052;2022-10-16T04:55:17;22.83;;;13.05;;
56943;SDS011;42848;42.524;12.052;2022-10-16T04:57:42;20.92;;;12.52;;
56943;SDS011;42848;42.524;12.052;2022-10-16T05:00:08;20.70;;;12.20;;
56943;SDS011;42848;42.524;12.052;2022-10-16T05:02:34;19.85;;;12.07;;
56943;SDS011;42848;42.524;12.052;2022-10-16T05:05:00;19.83;;;12.32;;
56943;SDS011;42848;42.524;12.052;2022-10-16T05:07:25;20.77;;;12.70;;
56943;SDS011;42848;42.524;12.052;2022-10-16T05:09:51;21.92;;;13.15;;
56943;SDS011;42848;42.524;12.052;2022-10-16T05:12:17;21.05;;;12.85;;
56943;SDS011;42848;42.524;12.052;2022-10-16T05:14:42;20.17;;;13.05;;
56943;SDS011;42848;42.524;12.052;2022-10-16T05:17:08;22.77;;;13.18;;
56943;SDS011;42848;42.524;12.052;2022-10-16T05:19:34;20.88;;;12.52;;
56943;SDS011;42848;42.524;12.052;2022-10-16T05:22:00;20.00;;;12.65;;
56943;SDS011;42848;42.524;12.052;2022-10-16T05:24:26;19.48;;;12.23;;
56943;SDS011;42848;42.524;12.052;2022-10-16T05:26:52;21.48;;;12.52;;
56943;SDS011;42848;42.524;12.052;2022-10-16T05:29:18;18.17;;;12.20;;
56943;SDS011;42848;42.524;12.052;2022-10-16T05:31:44;20.92;;;12.00;;
56943;SDS011;42848;42.524;12.052;2022-10-16T05:34:10;18.73;;;11.88;;
56943;SDS011;42848;42.524;12.052;2022-10-16T05:36:36;17.50;;;11.45;;
56943;SDS011;42848;42.524;12.052;2022-10-16T05:39:04;20.77;;;12.13;;
56943;SDS011;42848;42.524;12.052;2022-10-16T05:41:30;23.50;;;12.82;;
56943;SDS011;42848;42.524;12.052;2022-10-16T05:43:56;17.15;;;11.57;;
56943;SDS011;42848;42.524;12.052;2022-10-16T05:46:22;19.08;;;11.20;;
56943;SDS011;42848;42.524;12.052;2022-10-16T05:48:48;19.35;;;11.68;;
56943;SDS011;42848;42.524;12.052;2022-10-16T05:51:14;19.13;;;11.38;;
56943;SDS011;42848;42.524;12.052;2022-10-16T05:53:40;18.65;;;11.38;;
56943;SDS011;42848;42.524;12.052;2022-10-16T05:56:07;18.25;;;11.07;;
56943;SDS011;42848;42.524;12.052;2022-10-16T05:58:35;20.40;;;11.10;;
56943;SDS011;42848;42.524;12.052;2022-10-16T06:01:03;19.52;;;11.50;;
56943;SDS011;42848;42.524;12.052;2022-10-16T06:03:35;18.65;;;11.20;;
56943;SDS011;42848;42.524;12.052;2022-10-16T06:06:10;17.52;;;10.93;;
56943;SDS011;42848;42.524;12.052;2022-10-16T06:08:38;18.63;;;11.05;;
56943;SDS011;42848;42.524;12.052;2022-10-16T06:11:05;17.35;;;10.68;;
56943;SDS011;42848;42.524;12.052;2022-10-16T06:13:33;16.83;;;10.57;;
56943;SDS011;42848;42.524;12.052;2022-10-16T06:16:00;17.13;;;11.15;;
56943;SDS011;42848;42.524;12.052;2022-10-16T06:18:26;17.08;;;10.43;;
56943;SDS011;42848;42.524;12.052;2022-10-16T06:20:53;18.25;;;11.00;;
56943;SDS011;42848;42.524;12.052;2022-10-16T06:23:20;34.03;;;19.35;;
56943;SDS011;42848;42.524;12.052;2022-10-16T06:25:45;48.38;;;27.17;;
56943;SDS011;42848;42.524;12.052;2022-10-16T06:28:12;59.72;;;31.98;;
56943;SDS011;42848;42.524;12.052;2022-10-16T06:30:39;73.40;;;39.47;;
56943;SDS011;42848;42.524;12.052;2022-10-16T06:33:04;85.43;;;43.20;;
56943;SDS011;42848;42.524;12.052;2022-10-16T06:35:30;90.03;;;45.35;;
56943;SDS011;42848;42.524;12.052;2022-10-16T06:37:57;85.68;;;45.00;;
56943;SDS011;42848;42.524;12.052;2022-10-16T06:40:23;83.13;;;44.08;;
56943;SDS011;42848;42.524;12.052;2022-10-16T06:42:49;95.07;;;48.50;;
56943;SDS011;42848;42.524;12.052;2022-10-16T06:45:16;94.18;;;48.25;;
56943;SDS011;42848;42.524;12.052;2022-10-16T06:47:42;88.18;;;45.97;;
56943;SDS011;42848;42.524;12.052;2022-10-16T06:50:08;132.23;;;67.35;;
56943;SDS011;42848;42.524;12.052;2022-10-16T06:52:34;145.82;;;75.38;;
56943;SDS011;42848;42.524;12.052;2022-10-16T06:55:00;112.72;;;59.60;;
56943;SDS011;42848;42.524;12.052;2022-10-16T06:57:26;116.82;;;56.78;;
56943;SDS011;42848;42.524;12.052;2022-10-16T06:59:52;71.00;;;37.15;;
56943;SDS011;42848;42.524;12.052;2022-10-16T07:02:17;53.33;;;30.08;;
56943;SDS011;42848;42.524;12.052;2022-10-16T07:04:43;36.47;;;20.88;;
56943;SDS011;42848;42.524;12.052;2022-10-16T07:07:08;25.17;;;15.63;;
56943;SDS011;42848;42.524;12.052;2022-10-16T07:09:34;25.73;;;15.15;;
56943;SDS011;42848;42.524;12.052;2022-10-16T07:12:00;16.67;;;10.15;;
56943;SDS011;42848;42.524;12.052;2022-10-16T07:14:25;18.60;;;11.77;;
56943;SDS011;42848;42.524;12.052;2022-10-16T07:16:51;34.70;;;21.17;;
56943;SDS011;42848;42.524;12.052;2022-10-16T07:19:16;38.47;;;20.95;;
56943;SDS011;42848;42.524;12.052;2022-10-16T07:21:43;37.92;;;22.60;;
56943;SDS011;42848;42.524;12.052;2022-10-16T07:24:13;37.00;;;21.17;;
56943;SDS011;42848;42.524;12.052;2022-10-16T07:26:41;26.88;;;16.55;;
56943;SDS011;42848;42.524;12.052;2022-10-16T07:29:16;25.13;;;15.32;;
56943;SDS011;42848;42.524;12.052;2022-10-16T07:31:44;21.83;;;14.02;;
56943;SDS011;42848;42.524;12.052;2022-10-16T07:34:11;16.98;;;9.55;;
56943;SDS011;42848;42.524;12.052;2022-10-16T07:36:38;16.88;;;9.43;;
56943;SDS011;42848;42.524;12.052;2022-10-16T07:39:04;22.60;;;13.20;;
56943;SDS011;42848;42.524;12.052;2022-10-16T07:41:30;17.23;;;10.82;;
56943;SDS011;42848;42.524;12.052;2022-10-16T07:43:58;15.95;;;10.00;;
56943;SDS011;42848;42.524;12.052;2022-10-16T07:46:27;13.90;;;8.88;;
56943;SDS011;42848;42.524;12.052;2022-10-16T07:48:53;13.27;;;8.75;;
56943;SDS011;42848;42.524;12.052;2022-10-16T07:51:23;13.63;;;7.90;;
56943;SDS011;42848;42.524;12.052;2022-10-16T07:53:49;15.30;;;8.50;;
56943;SDS011;42848;42.524;12.052;2022-10-16T07:56:16;15.35;;;9.30;;
56943;SDS011;42848;42.524;12.052;2022-10-16T07:58:43;13.98;;;9.05;;
56943;SDS011;42848;42.524;12.052;2022-10-16T08:01:10;15.77;;;8.93;;
56943;SDS011;42848;42.524;12.052;2022-10-16T08:03:38;22.17;;;18.55;;
56943;SDS011;42848;42.524;12.052;2022-10-16T08:06:04;14.18;;;9.68;;
56943;SDS011;42848;42.524;12.052;2022-10-16T08:08:30;15.02;;;9.60;;
56943;SDS011;42848;42.524;12.052;2022-10-16T08:10:56;16.52;;;9.57;;
56943;SDS011;42848;42.524;12.052;2022-10-16T08:13:21;16.83;;;9.98;;
56943;SDS011;42848;42.524;12.052;2022-10-16T08:15:47;17.70;;;11.20;;
56943;SDS011;42848;42.524;12.052;2022-10-16T08:18:14;16.95;;;10.80;;
56943;SDS011;42848;42.524;12.052;2022-10-16T08:20:40;15.57;;;9.75;;
56943;SDS011;42848;42.524;12.052;2022-10-16T08:23:09;20.30;;;12.85;;
56943;SDS011;42848;42.524;12.052;2022-10-16T08:25:36;19.58;;;13.43;;
56943;SDS011;42848;42.524;12.052;2022-10-16T08:28:03;19.95;;;12.55;;
56943;SDS011;42848;42.524;12.052;2022-10-16T08:30:30;16.80;;;10.77;;
56943;SDS011;42848;42.524;12.052;2022-10-16T08:32:57;63.03;;;45.40;;
56943;SDS011;42848;42.524;12.052;2022-10-16T08:35:23;33.58;;;26.17;;
56943;SDS011;42848;42.524;12.052;2022-10-16T08:37:48;33.55;;;25.85;;
56943;SDS011;42848;42.524;12.052;2022-10-16T08:40:19;21.35;;;13.82;;
56943;SDS011;42848;42.524;12.052;2022-10-16T08:48:30;29.00;;;17.88;;
56943;SDS011;42848;42.524;12.052;2022-10-16T08:51:00;26.38;;;17.90;;
56943;SDS011;42848;42.524;12.052;2022-10-16T08:53:31;16.67;;;10.40;;
56943;SDS011;42848;42.524;12.052;2022-10-16T08:56:14;15.65;;;9.93;;
56943;SDS011;42848;42.524;12.052;2022-10-16T08:58:39;12.23;;;7.43;;
56943;SDS011;42848;42.524;12.052;2022-10-16T09:01:10;12.15;;;8.07;;
56943;SDS011;42848;42.524;12.052;2022-10-16T09:06:56;12.07;;;7.78;;
56943;SDS011;42848;42.524;12.052;2022-10-16T09:12:48;12.95;;;8.23;;
56943;SDS011;42848;42.524;12.052;2022-10-16T09:23:24;27.35;;;18.15;;
56943;SDS011;42848;42.524;12.052;2022-10-16T09:25:51;19.08;;;12.73;;
56943;SDS011;42848;42.524;12.052;2022-10-16T09:28:19;10.80;;;6.07;;
56943;SDS011;42848;42.524;12.052;2022-10-16T09:30:45;8.70;;;6.18;;
56943;SDS011;42848;42.524;12.052;2022-10-16T09:33:13;18.25;;;12.63;;
56943;SDS011;42848;42.524;12.052;2022-10-16T09:35:44;11.20;;;6.60;;
56943;SDS011;42848;42.524;12.052;2022-10-16T09:38:24;21.83;;;15.10;;
56943;SDS011;42848;42.524;12.052;2022-10-16T09:40:53;11.40;;;7.38;;
56943;SDS011;42848;42.524;12.052;2022-10-16T09:48:44;42.33;;;31.02;;
56943;SDS011;42848;42.524;12.052;2022-10-16T09:51:33;9.52;;;5.78;;
56943;SDS011;42848;42.524;12.052;2022-10-16T09:56:36;12.65;;;7.82;;
56943;SDS011;42848;42.524;12.052;2022-10-16T09:59:14;8.95;;;5.63;;
56943;SDS011;42848;42.524;12.052;2022-10-16T10:02:01;7.75;;;4.90;;
56943;SDS011;42848;42.524;12.052;2022-10-16T10:04:37;65.30;;;45.55;;
56943;SDS011;42848;42.524;12.052;2022-10-16T10:07:17;13.85;;;9.38;;
56943;SDS011;42848;42.524;12.052;2022-10-16T10:09:46;14.88;;;11.93;;
56943;SDS011;42848;42.524;12.052;2022-10-16T10:12:19;13.02;;;10.10;;
56943;SDS011;42848;42.524;12.052;2022-10-16T10:14:48;15.98;;;11.32;;
56943;SDS011;42848;42.524;12.052;2022-10-16T10:17:21;13.82;;;9.73;;
56943;SDS011;42848;42.524;12.052;2022-10-16T10:19:52;13.15;;;7.88;;
56943;SDS011;42848;42.524;12.052;2022-10-16T10:22:40;11.32;;;7.35;;
56943;SDS011;42848;42.524;12.052;2022-10-16T10:33:21;11.57;;;6.63;;
56943;SDS011;42848;42.524;12.052;2022-10-16T10:52:22;8.57;;;5.63;;
56943;SDS011;42848;42.524;12.052;2022-10-16T10:56:06;7.18;;;4.95;;
56943;SDS011;42848;42.524;12.052;2022-10-16T10:58:29;7.30;;;3.58;;
56943;SDS011;42848;42.524;12.052;2022-10-16T11:01:04;15.48;;;5.53;;
56943;SDS011;42848;42.524;12.052;2022-10-16T11:09:17;15.05;;;10.45;;
56943;SDS011;42848;42.524;12.052;2022-10-16T11:11:56;6.60;;;4.35;;
56943;SDS011;42848;42.524;12.052;2022-10-16T11:14:28;7.80;;;5.03;;
56943;SDS011;42848;42.524;12.052;2022-10-16T11:22:56;7.47;;;2.70;;
56943;SDS011;42848;42.524;12.052;2022-10-16T11:25:28;3.38;;;2.35;;
56943;SDS011;42848;42.524;12.052;2022-10-16T11:30:39;3.40;;;2.05;;
56943;SDS011;42848;42.524;12.052;2022-10-16T11:36:16;6.80;;;4.82;;
56943;SDS011;42848;42.524;12.052;2022-10-16T11:41:27;9.90;;;5.47;;
56943;SDS011;42848;42.524;12.052;2022-10-16T11:44:06;3.95;;;2.42;;
56943;SDS011;42848;42.524;12.052;2022-10-16T11:46:50;7.55;;;2.95;;
56943;SDS011;42848;42.524;12.052;2022-10-16T11:49:47;2.92;;;2.00;;
56943;SDS011;42848;42.524;12.052;2022-10-16T11:52:33;5.15;;;2.85;;
56943;SDS011;42848;42.524;12.052;2022-10-16T11:55:17;7.47;;;5.50;;
56943;SDS011;42848;42.524;12.052;2022-10-16T11:57:49;6.50;;;3.78;;
56943;SDS011;42848;42.524;12.052;2022-10-16T12:00:37;5.70;;;3.17;;
56943;SDS011;42848;42.524;12.052;2022-10-16T12:03:14;12.20;;;8.05;;
56943;SDS011;42848;42.524;12.052;2022-10-16T12:08:22;3.95;;;2.45;;
56943;SDS011;42848;42.524;12.052;2022-10-16T12:10:48;4.35;;;2.30;;
56943;SDS011;42848;42.524;12.052;2022-10-16T12:16:05;4.20;;;2.30;;
56943;SDS011;42848;42.524;12.052;2022-10-16T12:18:38;7.50;;;4.07;;
56943;SDS011;42848;42.524;12.052;2022-10-16T12:21:13;3.33;;;2.28;;
56943;SDS011;42848;42.524;12.052;2022-10-16T12:23:48;3.22;;;2.17;;
56943;SDS011;42848;42.524;12.052;2022-10-16T12:26:26;4.60;;;2.10;;
56943;SDS011;42848;42.524;12.052;2022-10-16T12:28:55;2.80;;;1.90;;
56943;SDS011;42848;42.524;12.052;2022-10-16T12:31:23;4.32;;;2.20;;
56943;SDS011;42848;42.524;12.052;2022-10-16T12:34:01;4.18;;;2.40;;
56943;SDS011;42848;42.524;12.052;2022-10-16T12:38:58;7.00;;;4.22;;
56943;SDS011;42848;42.524;12.052;2022-10-16T12:41:26;6.45;;;4.22;;
56943;SDS011;42848;42.524;12.052;2022-10-16T12:44:20;4.97;;;2.67;;
56943;SDS011;42848;42.524;12.052;2022-10-16T12:46:52;6.93;;;3.03;;
56943;SDS011;42848;42.524;12.052;2022-10-16T12:49:21;4.95;;;2.65;;
56943;SDS011;42848;42.524;12.052;2022-10-16T12:51:53;4.40;;;2.00;;
56943;SDS011;42848;42.524;12.052;2022-10-16T12:54:25;10.10;;;6.32;;
56943;SDS011;42848;42.524;12.052;2022-10-16T12:57:21;33.50;;;23.48;;
56943;SDS011;42848;42.524;12.052;2022-10-16T13:05:58;4.63;;;2.60;;
56943;SDS011;42848;42.524;12.052;2022-10-16T13:22:40;3.10;;;1.90;;
56943;SDS011;42848;42.524;12.052;2022-10-16T13:28:09;3.50;;;1.80;;
56943;SDS011;42848;42.524;12.052;2022-10-16T13:30:39;2.80;;;1.88;;
56943;SDS011;42848;42.524;12.052;2022-10-16T13:33:14;3.13;;;1.70;;
56943;SDS011;42848;42.524;12.052;2022-10-16T13:35:50;3.65;;;1.90;;
56943;SDS011;42848;42.524;12.052;2022-10-16T13:38:23;3.35;;;2.00;;
56943;SDS011;42848;42.524;12.052;2022-10-16T13:46:04;3.33;;;1.73;;
56943;SDS011;42848;42.524;12.052;2022-10-16T13:48:33;3.90;;;2.10;;
56943;SDS011;42848;42.524;12.052;2022-10-16T13:51:04;3.45;;;1.98;;
56943;SDS011;42848;42.524;12.052;2022-10-16T13:53:41;3.63;;;1.80;;
56943;SDS011;42848;42.524;12.052;2022-10-16T13:56:13;3.55;;;1.70;;
56943;SDS011;42848;42.524;12.052;2022-10-16T13:58:41;3.13;;;1.60;;
56943;SDS011;42848;42.524;12.052;2022-10-16T14:03:44;3.30;;;1.50;;
56943;SDS011;42848;42.524;12.052;2022-10-16T14:06:15;3.03;;;1.30;;
56943;SDS011;42848;42.524;12.052;2022-10-16T14:08:46;5.25;;;1.70;;
56943;SDS011;42848;42.524;12.052;2022-10-16T14:11:20;2.30;;;1.60;;
56943;SDS011;42848;42.524;12.052;2022-10-16T14:13:51;4.32;;;1.80;;
56943;SDS011;42848;42.524;12.052;2022-10-16T14:16:20;3.85;;;1.75;;
56943;SDS011;42848;42.524;12.052;2022-10-16T14:18:56;3.03;;;1.42;;
56943;SDS011;42848;42.524;12.052;2022-10-16T14:21:24;2.83;;;1.50;;
56943;SDS011;42848;42.524;12.052;2022-10-16T14:23:51;4.13;;;1.90;;
56943;SDS011;42848;42.524;12.052;2022-10-16T14:26:19;3.72;;;1.70;;
56943;SDS011;42848;42.524;12.052;2022-10-16T14:28:48;2.88;;;1.60;;
56943;SDS011;42848;42.524;12.052;2022-10-16T14:33:55;2.10;;;1.50;;
56943;SDS011;42848;42.524;12.052;2022-10-16T14:36:21;3.78;;;1.85;;
56943;SDS011;42848;42.524;12.052;2022-10-16T14:38:49;2.55;;;1.40;;
56943;SDS011;42848;42.524;12.052;2022-10-16T14:41:23;3.50;;;1.50;;
56943;SDS011;42848;42.524;12.052;2022-10-16T14:43:52;2.75;;;1.55;;
56943;SDS011;42848;42.524;12.052;2022-10-16T14:46:21;2.30;;;1.50;;
56943;SDS011;42848;42.524;12.052;2022-10-16T14:48:57;4.00;;;1.58;;
56943;SDS011;42848;42.524;12.052;2022-10-16T14:51:47;2.60;;;1.60;;
56943;SDS011;42848;42.524;12.052;2022-10-16T14:54:14;3.45;;;1.60;;
56943;SDS011;42848;42.524;12.052;2022-10-16T14:56:54;3.20;;;1.40;;
56943;SDS011;42848;42.524;12.052;2022-10-16T15:01:56;3.75;;;1.60;;
56943;SDS011;42848;42.524;12.052;2022-10-16T15:04:22;2.25;;;1.50;;
56943;SDS011;42848;42.524;12.052;2022-10-16T15:06:47;3.38;;;1.60;;
56943;SDS011;42848;42.524;12.052;2022-10-16T15:09:13;3.50;;;1.45;;
56943;SDS011;42848;42.524;12.052;2022-10-16T15:11:39;4.07;;;2.40;;
56943;SDS011;42848;42.524;12.052;2022-10-16T15:14:05;4.03;;;2.40;;
56943;SDS011;42848;42.524;12.052;2022-10-16T15:16:31;4.88;;;2.33;;
56943;SDS011;42848;42.524;12.052;2022-10-16T15:18:56;2.72;;;1.45;;
56943;SDS011;42848;42.524;12.052;2022-10-16T15:21:25;3.97;;;1.60;;
56943;SDS011;42848;42.524;12.052;2022-10-16T15:23:56;3.22;;;1.73;;
56943;SDS011;42848;42.524;12.052;2022-10-16T15:26:23;3.70;;;1.88;;
56943;SDS011;42848;42.524;12.052;2022-10-16T15:28:50;2.60;;;1.70;;
56943;SDS011;42848;42.524;12.052;2022-10-16T15:31:17;3.92;;;2.42;;
56943;SDS011;42848;42.524;12.052;2022-10-16T15:33:43;3.60;;;1.50;;
56943;SDS011;42848;42.524;12.052;2022-10-16T15:36:12;3.65;;;2.25;;
56943;SDS011;42848;42.524;12.052;2022-10-16T15:38:38;5.05;;;2.53;;
56943;SDS011;42848;42.524;12.052;2022-10-16T15:41:04;3.08;;;1.92;;
56943;SDS011;42848;42.524;12.052;2022-10-16T15:43:30;3.67;;;2.33;;
56943;SDS011;42848;42.524;12.052;2022-10-16T15:46:00;3.97;;;2.50;;
56943;SDS011;42848;42.524;12.052;2022-10-16T15:48:32;4.97;;;2.75;;
56943;SDS011;42848;42.524;12.052;2022-10-16T15:50:59;3.38;;;1.85;;
56943;SDS011;42848;42.524;12.052;2022-10-16T15:53:29;6.47;;;2.70;;
56943;SDS011;42848;42.524;12.052;2022-10-16T15:55:56;3.42;;;2.00;;
56943;SDS011;42848;42.524;12.052;2022-10-16T15:58:22;6.57;;;3.85;;
56943;SDS011;42848;42.524;12.052;2022-10-16T16:00:54;5.68;;;4.20;;
56943;SDS011;42848;42.524;12.052;2022-10-16T16:03:21;5.28;;;2.67;;
56943;SDS011;42848;42.524;12.052;2022-10-16T16:05:48;5.55;;;3.33;;
56943;SDS011;42848;42.524;12.052;2022-10-16T16:08:14;7.15;;;4.47;;
56943;SDS011;42848;42.524;12.052;2022-10-16T16:10:40;5.97;;;3.58;;
56943;SDS011;42848;42.524;12.052;2022-10-16T16:13:06;3.70;;;2.20;;
56943;SDS011;42848;42.524;12.052;2022-10-16T16:15:34;8.23;;;5.10;;
56943;SDS011;42848;42.524;12.052;2022-10-16T16:18:00;6.65;;;3.85;;
56943;SDS011;42848;42.524;12.052;2022-10-16T16:20:27;4.57;;;2.42;;
56943;SDS011;42848;42.524;12.052;2022-10-16T16:22:53;4.45;;;1.70;;
56943;SDS011;42848;42.524;12.052;2022-10-16T16:25:20;5.32;;;1.67;;
56943;SDS011;42848;42.524;12.052;2022-10-16T16:27:46;3.47;;;1.83;;
56943;SDS011;42848;42.524;12.052;2022-10-16T16:30:12;4.22;;;2.10;;
56943;SDS011;42848;42.524;12.052;2022-10-16T16:32:38;4.28;;;2.10;;
56943;SDS011;42848;42.524;12.052;2022-10-16T16:35:04;6.10;;;2.25;;
56943;SDS011;42848;42.524;12.052;2022-10-16T16:37:31;5.18;;;2.60;;
56943;SDS011;42848;42.524;12.052;2022-10-16T16:39:59;4.55;;;2.28;;